Decoded Metar for LFLS (GRENOBLE in FRANCE) (IATA:GNB) | Meteo·Mobile Aviation Weather
aviador You're here:

LFLS Decoded Metar

GRENOBLE in FRANCE
Report Time2019-07-19 18:00:00
UTC Time2019-07-19 18:27:09
Flight Rules vfr VFR
WindVRB at 03 kt
Visibility9999 m
Phenomena:N/A
Clouds:N/A
Expected CloudBase > 8,000 ft AGL from Temp-Dew spread
CeilingNone
Temp30°C (ISA +18)
Dew Point10°C (29% RH)
Heat Index28.7°C
AAT29.0°C
QNH1015 hPa
Density Alt3,369 ft
Elevation1,266 ft
Report Wrong Elevation
Raw Report
LFLS 191800Z AUTO VRB03KT CAVOK 30/10 Q1015 NOSIG=

Extra information for LFLS:More info

Metar Taf Metar & Taf Last 4 Metars F.Rules Stats Wind Profile Meteogram Temp Stats Airport Information Weather charts Add Link Nearby VenuesMetar ALERT Operation Metar Decoded Social comments